sensor_id;sensor_type;location;lat;lon;timestamp;P1;durP1;ratioP1;P2;durP2;ratioP2
7160;SDS011;3622;53.576;9.978;2023-01-24T00:02:05;30.10;;;12.03;;
7160;SDS011;3622;53.576;9.978;2023-01-24T00:04:31;27.50;;;12.97;;
7160;SDS011;3622;53.576;9.978;2023-01-24T00:06:57;49.00;;;19.10;;
7160;SDS011;3622;53.576;9.978;2023-01-24T00:09:23;30.80;;;13.00;;
7160;SDS011;3622;53.576;9.978;2023-01-24T00:11:49;33.70;;;12.10;;
7160;SDS011;3622;53.576;9.978;2023-01-24T00:14:15;27.20;;;12.80;;
7160;SDS011;3622;53.576;9.978;2023-01-24T00:16:41;28.77;;;12.60;;
7160;SDS011;3622;53.576;9.978;2023-01-24T00:19:07;28.27;;;13.03;;
7160;SDS011;3622;53.576;9.978;2023-01-24T00:21:33;29.73;;;12.63;;
7160;SDS011;3622;53.576;9.978;2023-01-24T00:23:59;27.13;;;11.80;;
7160;SDS011;3622;53.576;9.978;2023-01-24T00:26:25;32.10;;;13.07;;
7160;SDS011;3622;53.576;9.978;2023-01-24T00:28:51;23.77;;;11.90;;
7160;SDS011;3622;53.576;9.978;2023-01-24T00:31:17;31.13;;;14.13;;
7160;SDS011;3622;53.576;9.978;2023-01-24T00:33:43;30.93;;;14.20;;
7160;SDS011;3622;53.576;9.978;2023-01-24T00:36:09;24.53;;;11.50;;
7160;SDS011;3622;53.576;9.978;2023-01-24T00:38:36;27.60;;;12.20;;
7160;SDS011;3622;53.576;9.978;2023-01-24T00:41:02;27.83;;;12.80;;
7160;SDS011;3622;53.576;9.978;2023-01-24T00:43:28;27.00;;;12.70;;
7160;SDS011;3622;53.576;9.978;2023-01-24T00:45:54;29.00;;;13.53;;
7160;SDS011;3622;53.576;9.978;2023-01-24T00:48:20;27.60;;;12.80;;
7160;SDS011;3622;53.576;9.978;2023-01-24T00:50:46;33.87;;;13.70;;
7160;SDS011;3622;53.576;9.978;2023-01-24T00:53:12;33.50;;;12.43;;
7160;SDS011;3622;53.576;9.978;2023-01-24T00:55:44;26.43;;;12.63;;
7160;SDS011;3622;53.576;9.978;2023-01-24T00:58:11;28.40;;;12.20;;
7160;SDS011;3622;53.576;9.978;2023-01-24T01:00:37;26.43;;;12.03;;
7160;SDS011;3622;53.576;9.978;2023-01-24T01:03:04;24.30;;;10.40;;
7160;SDS011;3622;53.576;9.978;2023-01-24T01:05:30;23.17;;;11.33;;
7160;SDS011;3622;53.576;9.978;2023-01-24T01:07:56;27.10;;;11.97;;
7160;SDS011;3622;53.576;9.978;2023-01-24T01:10:22;32.03;;;12.50;;
7160;SDS011;3622;53.576;9.978;2023-01-24T01:12:48;27.73;;;11.97;;
7160;SDS011;3622;53.576;9.978;2023-01-24T01:15:14;26.60;;;12.30;;
7160;SDS011;3622;53.576;9.978;2023-01-24T01:17:40;20.50;;;11.10;;
7160;SDS011;3622;53.576;9.978;2023-01-24T01:20:06;28.70;;;12.20;;
7160;SDS011;3622;53.576;9.978;2023-01-24T01:22:32;28.53;;;12.20;;
7160;SDS011;3622;53.576;9.978;2023-01-24T01:24:58;28.67;;;12.87;;
7160;SDS011;3622;53.576;9.978;2023-01-24T01:27:24;30.20;;;12.13;;
7160;SDS011;3622;53.576;9.978;2023-01-24T01:29:50;28.37;;;11.70;;
7160;SDS011;3622;53.576;9.978;2023-01-24T01:32:16;25.30;;;11.83;;
7160;SDS011;3622;53.576;9.978;2023-01-24T01:34:42;29.43;;;14.03;;
7160;SDS011;3622;53.576;9.978;2023-01-24T01:37:08;27.97;;;12.23;;
7160;SDS011;3622;53.576;9.978;2023-01-24T01:39:34;25.43;;;12.23;;
7160;SDS011;3622;53.576;9.978;2023-01-24T01:42:00;25.83;;;11.87;;
7160;SDS011;3622;53.576;9.978;2023-01-24T01:44:27;22.53;;;11.33;;
7160;SDS011;3622;53.576;9.978;2023-01-24T01:47:03;21.90;;;10.03;;
7160;SDS011;3622;53.576;9.978;2023-01-24T01:49:31;29.67;;;12.33;;
7160;SDS011;3622;53.576;9.978;2023-01-24T01:51:58;22.70;;;10.80;;
7160;SDS011;3622;53.576;9.978;2023-01-24T01:54:29;23.30;;;11.63;;
7160;SDS011;3622;53.576;9.978;2023-01-24T01:56:57;21.03;;;11.40;;
7160;SDS011;3622;53.576;9.978;2023-01-24T01:59:26;24.73;;;11.50;;
7160;SDS011;3622;53.576;9.978;2023-01-24T02:01:55;24.33;;;10.83;;
7160;SDS011;3622;53.576;9.978;2023-01-24T02:04:25;25.53;;;11.73;;
7160;SDS011;3622;53.576;9.978;2023-01-24T02:09:34;28.20;;;12.43;;
7160;SDS011;3622;53.576;9.978;2023-01-24T02:12:06;24.63;;;10.73;;
7160;SDS011;3622;53.576;9.978;2023-01-24T02:14:33;26.40;;;11.70;;
7160;SDS011;3622;53.576;9.978;2023-01-24T02:17:19;27.10;;;12.67;;
7160;SDS011;3622;53.576;9.978;2023-01-24T02:19:47;26.83;;;10.77;;
7160;SDS011;3622;53.576;9.978;2023-01-24T02:25:03;25.10;;;11.90;;
7160;SDS011;3622;53.576;9.978;2023-01-24T02:27:31;23.87;;;10.57;;
7160;SDS011;3622;53.576;9.978;2023-01-24T02:29:57;23.63;;;11.13;;
7160;SDS011;3622;53.576;9.978;2023-01-24T02:32:24;19.70;;;10.70;;
7160;SDS011;3622;53.576;9.978;2023-01-24T02:34:50;24.20;;;11.00;;
7160;SDS011;3622;53.576;9.978;2023-01-24T02:37:16;21.43;;;10.70;;
7160;SDS011;3622;53.576;9.978;2023-01-24T02:42:10;21.63;;;9.97;;
7160;SDS011;3622;53.576;9.978;2023-01-24T02:44:41;27.17;;;11.13;;
7160;SDS011;3622;53.576;9.978;2023-01-24T02:47:08;18.40;;;9.10;;
7160;SDS011;3622;53.576;9.978;2023-01-24T02:49:34;24.40;;;10.23;;
7160;SDS011;3622;53.576;9.978;2023-01-24T02:52:00;21.87;;;10.40;;
7160;SDS011;3622;53.576;9.978;2023-01-24T02:54:45;22.30;;;10.87;;
7160;SDS011;3622;53.576;9.978;2023-01-24T02:57:11;24.93;;;10.33;;
7160;SDS011;3622;53.576;9.978;2023-01-24T02:59:55;23.70;;;11.37;;
7160;SDS011;3622;53.576;9.978;2023-01-24T03:02:21;20.87;;;10.50;;
7160;SDS011;3622;53.576;9.978;2023-01-24T03:04:47;25.50;;;10.20;;
7160;SDS011;3622;53.576;9.978;2023-01-24T03:07:13;24.07;;;11.00;;
7160;SDS011;3622;53.576;9.978;2023-01-24T03:09:40;21.50;;;10.37;;
7160;SDS011;3622;53.576;9.978;2023-01-24T03:12:12;20.97;;;10.67;;
7160;SDS011;3622;53.576;9.978;2023-01-24T03:14:57;22.67;;;10.83;;
7160;SDS011;3622;53.576;9.978;2023-01-24T03:17:42;22.40;;;10.00;;
7160;SDS011;3622;53.576;9.978;2023-01-24T03:20:27;19.13;;;10.30;;
7160;SDS011;3622;53.576;9.978;2023-01-24T03:23:12;19.83;;;9.70;;
7160;SDS011;3622;53.576;9.978;2023-01-24T03:25:57;21.20;;;10.70;;
7160;SDS011;3622;53.576;9.978;2023-01-24T03:28:41;20.37;;;10.10;;
7160;SDS011;3622;53.576;9.978;2023-01-24T03:31:26;21.97;;;10.50;;
7160;SDS011;3622;53.576;9.978;2023-01-24T03:34:11;23.47;;;11.27;;
7160;SDS011;3622;53.576;9.978;2023-01-24T03:37:01;9.43;;;6.33;;
7160;SDS011;3622;53.576;9.978;2023-01-24T03:39:27;13.00;;;7.73;;
7160;SDS011;3622;53.576;9.978;2023-01-24T03:42:12;18.97;;;8.83;;
7160;SDS011;3622;53.576;9.978;2023-01-24T03:44:38;19.60;;;8.87;;
7160;SDS011;3622;53.576;9.978;2023-01-24T03:47:04;19.33;;;9.70;;
7160;SDS011;3622;53.576;9.978;2023-01-24T03:49:30;19.73;;;9.27;;
7160;SDS011;3622;53.576;9.978;2023-01-24T03:52:14;18.33;;;9.43;;
7160;SDS011;3622;53.576;9.978;2023-01-24T03:54:49;22.90;;;10.87;;
7160;SDS011;3622;53.576;9.978;2023-01-24T03:57:15;20.13;;;9.70;;
7160;SDS011;3622;53.576;9.978;2023-01-24T03:59:41;22.07;;;10.70;;
7160;SDS011;3622;53.576;9.978;2023-01-24T04:02:07;17.50;;;9.43;;
7160;SDS011;3622;53.576;9.978;2023-01-24T04:04:33;19.83;;;9.17;;
7160;SDS011;3622;53.576;9.978;2023-01-24T04:07:18;22.57;;;10.70;;
7160;SDS011;3622;53.576;9.978;2023-01-24T04:09:44;19.27;;;9.20;;
7160;SDS011;3622;53.576;9.978;2023-01-24T04:12:10;22.70;;;11.03;;
7160;SDS011;3622;53.576;9.978;2023-01-24T04:14:36;16.80;;;9.30;;
7160;SDS011;3622;53.576;9.978;2023-01-24T04:17:02;22.23;;;9.93;;
7160;SDS011;3622;53.576;9.978;2023-01-24T04:19:28;21.77;;;9.30;;
7160;SDS011;3622;53.576;9.978;2023-01-24T04:21:54;17.67;;;8.30;;
7160;SDS011;3622;53.576;9.978;2023-01-24T04:24:22;21.57;;;8.50;;
7160;SDS011;3622;53.576;9.978;2023-01-24T04:26:48;17.23;;;8.87;;
7160;SDS011;3622;53.576;9.978;2023-01-24T04:29:14;17.63;;;8.93;;
7160;SDS011;3622;53.576;9.978;2023-01-24T04:31:40;18.97;;;8.73;;
7160;SDS011;3622;53.576;9.978;2023-01-24T04:34:06;18.17;;;8.13;;
7160;SDS011;3622;53.576;9.978;2023-01-24T04:36:32;18.40;;;8.33;;
7160;SDS011;3622;53.576;9.978;2023-01-24T04:38:58;14.63;;;8.33;;
7160;SDS011;3622;53.576;9.978;2023-01-24T04:41:24;14.60;;;7.93;;
7160;SDS011;3622;53.576;9.978;2023-01-24T04:43:50;15.13;;;8.77;;
7160;SDS011;3622;53.576;9.978;2023-01-24T04:46:16;16.83;;;8.90;;
7160;SDS011;3622;53.576;9.978;2023-01-24T04:48:42;17.60;;;8.93;;
7160;SDS011;3622;53.576;9.978;2023-01-24T04:51:08;14.40;;;7.60;;
7160;SDS011;3622;53.576;9.978;2023-01-24T04:53:37;13.30;;;7.70;;
7160;SDS011;3622;53.576;9.978;2023-01-24T04:56:03;17.13;;;8.50;;
7160;SDS011;3622;53.576;9.978;2023-01-24T04:58:29;16.70;;;8.93;;
7160;SDS011;3622;53.576;9.978;2023-01-24T05:00:55;13.57;;;7.83;;
7160;SDS011;3622;53.576;9.978;2023-01-24T05:03:21;7.30;;;5.30;;
7160;SDS011;3622;53.576;9.978;2023-01-24T05:05:51;9.80;;;6.57;;
7160;SDS011;3622;53.576;9.978;2023-01-24T05:08:17;11.43;;;6.70;;
7160;SDS011;3622;53.576;9.978;2023-01-24T05:10:43;8.63;;;5.90;;
7160;SDS011;3622;53.576;9.978;2023-01-24T05:13:09;9.20;;;6.00;;
7160;SDS011;3622;53.576;9.978;2023-01-24T05:15:35;7.37;;;5.50;;
7160;SDS011;3622;53.576;9.978;2023-01-24T05:18:02;5.60;;;5.10;;
7160;SDS011;3622;53.576;9.978;2023-01-24T05:20:28;7.57;;;5.57;;
7160;SDS011;3622;53.576;9.978;2023-01-24T05:22:57;11.57;;;5.70;;
7160;SDS011;3622;53.576;9.978;2023-01-24T05:25:23;7.40;;;5.63;;
7160;SDS011;3622;53.576;9.978;2023-01-24T05:27:49;8.00;;;5.80;;
7160;SDS011;3622;53.576;9.978;2023-01-24T05:30:15;12.60;;;7.13;;
7160;SDS011;3622;53.576;9.978;2023-01-24T05:32:41;9.67;;;6.00;;
7160;SDS011;3622;53.576;9.978;2023-01-24T05:35:08;8.63;;;5.63;;
7160;SDS011;3622;53.576;9.978;2023-01-24T05:37:37;7.90;;;5.30;;
7160;SDS011;3622;53.576;9.978;2023-01-24T05:40:03;8.33;;;6.03;;
7160;SDS011;3622;53.576;9.978;2023-01-24T05:42:30;5.83;;;5.10;;
7160;SDS011;3622;53.576;9.978;2023-01-24T05:44:56;10.20;;;6.23;;
7160;SDS011;3622;53.576;9.978;2023-01-24T05:47:22;8.93;;;5.93;;
7160;SDS011;3622;53.576;9.978;2023-01-24T05:49:48;8.83;;;5.90;;
7160;SDS011;3622;53.576;9.978;2023-01-24T05:52:14;8.80;;;5.73;;
7160;SDS011;3622;53.576;9.978;2023-01-24T05:54:46;7.10;;;5.27;;
7160;SDS011;3622;53.576;9.978;2023-01-24T05:57:13;10.23;;;6.23;;
7160;SDS011;3622;53.576;9.978;2023-01-24T05:59:39;10.57;;;5.97;;
7160;SDS011;3622;53.576;9.978;2023-01-24T06:02:05;8.43;;;6.00;;
7160;SDS011;3622;53.576;9.978;2023-01-24T06:04:30;8.23;;;5.90;;
7160;SDS011;3622;53.576;9.978;2023-01-24T06:06:56;8.37;;;6.40;;
7160;SDS011;3622;53.576;9.978;2023-01-24T06:09:22;10.63;;;5.70;;
7160;SDS011;3622;53.576;9.978;2023-01-24T06:11:48;9.43;;;6.20;;
7160;SDS011;3622;53.576;9.978;2023-01-24T06:14:15;10.20;;;6.50;;
7160;SDS011;3622;53.576;9.978;2023-01-24T06:16:42;9.40;;;6.17;;
7160;SDS011;3622;53.576;9.978;2023-01-24T06:19:08;10.37;;;7.00;;
7160;SDS011;3622;53.576;9.978;2023-01-24T06:24:18;8.60;;;6.10;;
7160;SDS011;3622;53.576;9.978;2023-01-24T06:26:45;11.50;;;6.23;;
7160;SDS011;3622;53.576;9.978;2023-01-24T06:29:11;9.03;;;6.30;;
7160;SDS011;3622;53.576;9.978;2023-01-24T06:31:46;8.80;;;6.33;;
7160;SDS011;3622;53.576;9.978;2023-01-24T06:37:14;12.63;;;7.33;;
7160;SDS011;3622;53.576;9.978;2023-01-24T06:39:32;8.67;;;5.93;;
7160;SDS011;3622;53.576;9.978;2023-01-24T06:41:58;10.43;;;6.60;;
7160;SDS011;3622;53.576;9.978;2023-01-24T06:44:25;11.63;;;7.10;;
7160;SDS011;3622;53.576;9.978;2023-01-24T06:46:51;12.37;;;7.60;;
7160;SDS011;3622;53.576;9.978;2023-01-24T06:49:17;13.80;;;7.70;;
7160;SDS011;3622;53.576;9.978;2023-01-24T06:51:48;11.10;;;6.50;;
7160;SDS011;3622;53.576;9.978;2023-01-24T06:54:14;11.40;;;6.60;;
7160;SDS011;3622;53.576;9.978;2023-01-24T06:56:41;11.70;;;6.37;;
7160;SDS011;3622;53.576;9.978;2023-01-24T06:59:07;11.87;;;6.60;;
7160;SDS011;3622;53.576;9.978;2023-01-24T07:01:33;10.67;;;7.10;;
7160;SDS011;3622;53.576;9.978;2023-01-24T07:03:59;14.17;;;7.10;;
7160;SDS011;3622;53.576;9.978;2023-01-24T07:06:25;7.80;;;6.10;;
7160;SDS011;3622;53.576;9.978;2023-01-24T07:08:51;9.50;;;6.30;;
7160;SDS011;3622;53.576;9.978;2023-01-24T07:11:17;13.30;;;7.37;;
7160;SDS011;3622;53.576;9.978;2023-01-24T07:13:43;12.60;;;6.60;;
7160;SDS011;3622;53.576;9.978;2023-01-24T07:16:09;12.43;;;7.70;;
7160;SDS011;3622;53.576;9.978;2023-01-24T07:18:35;12.83;;;7.33;;
7160;SDS011;3622;53.576;9.978;2023-01-24T07:21:08;9.80;;;6.67;;
7160;SDS011;3622;53.576;9.978;2023-01-24T07:23:34;11.00;;;7.37;;
7160;SDS011;3622;53.576;9.978;2023-01-24T07:26:00;9.00;;;6.83;;
7160;SDS011;3622;53.576;9.978;2023-01-24T07:28:28;13.70;;;7.50;;
7160;SDS011;3622;53.576;9.978;2023-01-24T07:30:54;9.73;;;6.43;;
7160;SDS011;3622;53.576;9.978;2023-01-24T07:33:20;10.70;;;7.30;;
7160;SDS011;3622;53.576;9.978;2023-01-24T07:35:46;11.37;;;7.33;;
7160;SDS011;3622;53.576;9.978;2023-01-24T07:38:12;21.27;;;7.70;;
7160;SDS011;3622;53.576;9.978;2023-01-24T07:40:38;12.33;;;7.60;;
7160;SDS011;3622;53.576;9.978;2023-01-24T07:43:04;11.93;;;7.73;;
7160;SDS011;3622;53.576;9.978;2023-01-24T07:45:31;11.97;;;7.27;;
7160;SDS011;3622;53.576;9.978;2023-01-24T07:48:00;12.90;;;7.47;;
7160;SDS011;3622;53.576;9.978;2023-01-24T07:50:26;13.20;;;8.03;;
7160;SDS011;3622;53.576;9.978;2023-01-24T07:52:55;17.67;;;7.70;;
7160;SDS011;3622;53.576;9.978;2023-01-24T07:55:21;10.57;;;7.33;;
7160;SDS011;3622;53.576;9.978;2023-01-24T07:57:47;21.50;;;9.03;;
7160;SDS011;3622;53.576;9.978;2023-01-24T08:00:13;14.00;;;7.50;;
7160;SDS011;3622;53.576;9.978;2023-01-24T08:02:40;10.87;;;7.23;;
7160;SDS011;3622;53.576;9.978;2023-01-24T08:05:06;13.60;;;8.00;;
7160;SDS011;3622;53.576;9.978;2023-01-24T08:07:32;12.17;;;7.80;;
7160;SDS011;3622;53.576;9.978;2023-01-24T08:09:58;10.47;;;7.00;;
7160;SDS011;3622;53.576;9.978;2023-01-24T08:12:24;14.07;;;7.50;;
7160;SDS011;3622;53.576;9.978;2023-01-24T08:14:50;10.83;;;7.40;;
7160;SDS011;3622;53.576;9.978;2023-01-24T08:17:16;10.50;;;7.30;;
7160;SDS011;3622;53.576;9.978;2023-01-24T08:19:42;12.87;;;7.93;;
7160;SDS011;3622;53.576;9.978;2023-01-24T08:22:08;22.90;;;8.50;;
7160;SDS011;3622;53.576;9.978;2023-01-24T08:24:34;11.57;;;7.07;;
7160;SDS011;3622;53.576;9.978;2023-01-24T08:27:00;11.03;;;7.87;;
7160;SDS011;3622;53.576;9.978;2023-01-24T08:29:27;13.17;;;7.80;;
7160;SDS011;3622;53.576;9.978;2023-01-24T08:31:53;13.67;;;7.33;;
7160;SDS011;3622;53.576;9.978;2023-01-24T08:34:20;10.63;;;7.40;;
7160;SDS011;3622;53.576;9.978;2023-01-24T08:36:46;13.93;;;8.20;;
7160;SDS011;3622;53.576;9.978;2023-01-24T08:39:12;10.77;;;6.73;;
7160;SDS011;3622;53.576;9.978;2023-01-24T08:41:38;15.50;;;8.20;;
7160;SDS011;3622;53.576;9.978;2023-01-24T08:44:04;12.97;;;8.33;;
7160;SDS011;3622;53.576;9.978;2023-01-24T08:46:31;10.83;;;7.00;;
7160;SDS011;3622;53.576;9.978;2023-01-24T08:48:57;16.90;;;8.20;;
7160;SDS011;3622;53.576;9.978;2023-01-24T08:51:23;13.50;;;8.10;;
7160;SDS011;3622;53.576;9.978;2023-01-24T08:53:49;15.20;;;7.57;;
7160;SDS011;3622;53.576;9.978;2023-01-24T08:56:15;11.70;;;7.10;;
7160;SDS011;3622;53.576;9.978;2023-01-24T08:58:41;10.87;;;7.30;;
7160;SDS011;3622;53.576;9.978;2023-01-24T09:01:08;10.17;;;7.80;;
7160;SDS011;3622;53.576;9.978;2023-01-24T09:03:34;11.57;;;7.33;;
7160;SDS011;3622;53.576;9.978;2023-01-24T09:06:00;11.60;;;7.80;;
7160;SDS011;3622;53.576;9.978;2023-01-24T09:08:26;10.90;;;6.90;;
7160;SDS011;3622;53.576;9.978;2023-01-24T09:10:52;21.40;;;10.43;;
7160;SDS011;3622;53.576;9.978;2023-01-24T09:13:18;12.87;;;8.40;;
7160;SDS011;3622;53.576;9.978;2023-01-24T09:15:44;13.53;;;7.93;;
7160;SDS011;3622;53.576;9.978;2023-01-24T09:18:10;11.87;;;7.37;;
7160;SDS011;3622;53.576;9.978;2023-01-24T09:20:36;11.87;;;8.23;;
7160;SDS011;3622;53.576;9.978;2023-01-24T09:23:09;15.60;;;8.00;;
7160;SDS011;3622;53.576;9.978;2023-01-24T09:25:37;14.77;;;8.40;;
7160;SDS011;3622;53.576;9.978;2023-01-24T09:28:02;12.53;;;7.03;;
7160;SDS011;3622;53.576;9.978;2023-01-24T09:30:29;14.90;;;7.00;;
7160;SDS011;3622;53.576;9.978;2023-01-24T09:32:54;13.50;;;7.57;;
7160;SDS011;3622;53.576;9.978;2023-01-24T09:35:20;11.73;;;8.03;;
7160;SDS011;3622;53.576;9.978;2023-01-24T09:37:46;17.10;;;8.60;;
7160;SDS011;3622;53.576;9.978;2023-01-24T09:40:20;19.73;;;8.37;;
7160;SDS011;3622;53.576;9.978;2023-01-24T09:45:55;13.07;;;8.23;;
7160;SDS011;3622;53.576;9.978;2023-01-24T09:48:18;15.80;;;8.67;;
7160;SDS011;3622;53.576;9.978;2023-01-24T09:50:47;12.03;;;7.70;;
7160;SDS011;3622;53.576;9.978;2023-01-24T09:53:21;10.37;;;7.90;;
7160;SDS011;3622;53.576;9.978;2023-01-24T09:55:49;12.43;;;7.50;;
7160;SDS011;3622;53.576;9.978;2023-01-24T09:58:35;13.00;;;7.10;;
7160;SDS011;3622;53.576;9.978;2023-01-24T10:01:07;14.47;;;8.30;;
7160;SDS011;3622;53.576;9.978;2023-01-24T10:03:34;15.90;;;8.80;;
7160;SDS011;3622;53.576;9.978;2023-01-24T10:06:06;10.60;;;7.07;;
7160;SDS011;3622;53.576;9.978;2023-01-24T10:08:50;12.30;;;7.70;;
7160;SDS011;3622;53.576;9.978;2023-01-24T10:13:49;9.97;;;6.23;;
7160;SDS011;3622;53.576;9.978;2023-01-24T10:16:22;11.53;;;7.83;;
7160;SDS011;3622;53.576;9.978;2023-01-24T10:23:56;13.13;;;7.80;;
7160;SDS011;3622;53.576;9.978;2023-01-24T10:26:34;16.83;;;10.20;;
7160;SDS011;3622;53.576;9.978;2023-01-24T10:29:45;16.10;;;8.07;;
7160;SDS011;3622;53.576;9.978;2023-01-24T10:31:54;13.43;;;8.63;;
7160;SDS011;3622;53.576;9.978;2023-01-24T10:36:52;9.63;;;7.03;;
7160;SDS011;3622;53.576;9.978;2023-01-24T10:39:19;14.73;;;8.00;;
7160;SDS011;3622;53.576;9.978;2023-01-24T10:41:45;16.30;;;7.93;;
7160;SDS011;3622;53.576;9.978;2023-01-24T10:44:13;14.50;;;8.13;;
7160;SDS011;3622;53.576;9.978;2023-01-24T10:49:28;13.40;;;8.10;;
7160;SDS011;3622;53.576;9.978;2023-01-24T10:52:13;13.60;;;8.23;;
7160;SDS011;3622;53.576;9.978;2023-01-24T10:57:17;16.27;;;8.17;;
7160;SDS011;3622;53.576;9.978;2023-01-24T10:59:43;12.27;;;7.40;;
7160;SDS011;3622;53.576;9.978;2023-01-24T11:02:19;13.57;;;7.90;;
7160;SDS011;3622;53.576;9.978;2023-01-24T11:04:46;12.37;;;7.50;;
7160;SDS011;3622;53.576;9.978;2023-01-24T11:07:25;14.80;;;7.47;;
7160;SDS011;3622;53.576;9.978;2023-01-24T11:09:52;14.13;;;8.77;;
7160;SDS011;3622;53.576;9.978;2023-01-24T11:12:18;13.70;;;7.43;;
7160;SDS011;3622;53.576;9.978;2023-01-24T11:14:47;15.03;;;8.03;;
7160;SDS011;3622;53.576;9.978;2023-01-24T11:17:30;14.47;;;7.47;;
7160;SDS011;3622;53.576;9.978;2023-01-24T11:20:02;11.83;;;7.30;;
7160;SDS011;3622;53.576;9.978;2023-01-24T11:22:31;10.23;;;6.70;;
7160;SDS011;3622;53.576;9.978;2023-01-24T11:25:02;10.63;;;7.53;;
7160;SDS011;3622;53.576;9.978;2023-01-24T11:27:28;9.00;;;6.43;;
7160;SDS011;3622;53.576;9.978;2023-01-24T11:35:23;14.20;;;7.73;;
7160;SDS011;3622;53.576;9.978;2023-01-24T11:40:41;15.07;;;8.30;;
7160;SDS011;3622;53.576;9.978;2023-01-24T11:48:22;9.40;;;7.27;;
7160;SDS011;3622;53.576;9.978;2023-01-24T11:51:12;11.87;;;7.10;;
7160;SDS011;3622;53.576;9.978;2023-01-24T11:53:57;14.00;;;8.43;;
7160;SDS011;3622;53.576;9.978;2023-01-24T11:59:07;11.33;;;7.90;;
7160;SDS011;3622;53.576;9.978;2023-01-24T12:01:45;11.43;;;7.70;;
7160;SDS011;3622;53.576;9.978;2023-01-24T12:04:23;11.47;;;7.50;;
7160;SDS011;3622;53.576;9.978;2023-01-24T12:09:25;12.10;;;7.90;;
7160;SDS011;3622;53.576;9.978;2023-01-24T12:17:15;13.90;;;8.17;;
7160;SDS011;3622;53.576;9.978;2023-01-24T12:19:58;12.63;;;8.30;;
7160;SDS011;3622;53.576;9.978;2023-01-24T12:22:27;15.80;;;8.40;;
7160;SDS011;3622;53.576;9.978;2023-01-24T12:24:55;14.83;;;8.90;;
7160;SDS011;3622;53.576;9.978;2023-01-24T12:27:24;12.80;;;7.73;;
7160;SDS011;3622;53.576;9.978;2023-01-24T12:29:58;14.60;;;8.13;;
7160;SDS011;3622;53.576;9.978;2023-01-24T12:32:27;15.10;;;9.00;;
7160;SDS011;3622;53.576;9.978;2023-01-24T12:34:59;13.23;;;8.70;;
7160;SDS011;3622;53.576;9.978;2023-01-24T12:37:30;12.70;;;8.40;;
7160;SDS011;3622;53.576;9.978;2023-01-24T12:40:15;19.50;;;9.30;;
7160;SDS011;3622;53.576;9.978;2023-01-24T12:45:31;14.23;;;8.80;;
7160;SDS011;3622;53.576;9.978;2023-01-24T12:48:05;13.87;;;8.37;;
7160;SDS011;3622;53.576;9.978;2023-01-24T12:50:43;20.20;;;8.83;;
7160;SDS011;3622;53.576;9.978;2023-01-24T12:53:18;15.43;;;9.03;;
7160;SDS011;3622;53.576;9.978;2023-01-24T12:58:16;14.77;;;8.67;;
7160;SDS011;3622;53.576;9.978;2023-01-24T13:05:55;12.20;;;8.33;;
7160;SDS011;3622;53.576;9.978;2023-01-24T13:08:27;12.20;;;7.60;;
7160;SDS011;3622;53.576;9.978;2023-01-24T13:13:39;12.87;;;8.20;;
7160;SDS011;3622;53.576;9.978;2023-01-24T13:16:14;13.27;;;8.13;;
7160;SDS011;3622;53.576;9.978;2023-01-24T13:21:33;17.63;;;8.10;;
7160;SDS011;3622;53.576;9.978;2023-01-24T13:32:04;14.33;;;8.40;;
7160;SDS011;3622;53.576;9.978;2023-01-24T13:34:32;23.50;;;9.90;;
7160;SDS011;3622;53.576;9.978;2023-01-24T13:36:59;13.40;;;8.73;;
7160;SDS011;3622;53.576;9.978;2023-01-24T13:39:28;14.50;;;9.17;;
7160;SDS011;3622;53.576;9.978;2023-01-24T13:42:32;14.70;;;9.20;;
7160;SDS011;3622;53.576;9.978;2023-01-24T13:44:47;15.37;;;9.90;;
7160;SDS011;3622;53.576;9.978;2023-01-24T13:54:57;16.27;;;8.77;;
7160;SDS011;3622;53.576;9.978;2023-01-24T13:57:25;13.40;;;8.40;;
7160;SDS011;3622;53.576;9.978;2023-01-24T14:00:00;11.50;;;8.00;;
7160;SDS011;3622;53.576;9.978;2023-01-24T14:05:46;16.87;;;9.40;;
7160;SDS011;3622;53.576;9.978;2023-01-24T14:10:49;15.73;;;9.33;;
7160;SDS011;3622;53.576;9.978;2023-01-24T14:16:03;15.83;;;8.37;;
7160;SDS011;3622;53.576;9.978;2023-01-24T14:24:29;16.70;;;9.17;;
7160;SDS011;3622;53.576;9.978;2023-01-24T14:27:16;14.27;;;9.10;;
7160;SDS011;3622;53.576;9.978;2023-01-24T14:29:41;17.27;;;9.40;;
7160;SDS011;3622;53.576;9.978;2023-01-24T14:32:21;14.50;;;8.93;;
7160;SDS011;3622;53.576;9.978;2023-01-24T14:34:50;15.87;;;9.60;;
7160;SDS011;3622;53.576;9.978;2023-01-24T14:37:19;15.47;;;9.50;;
7160;SDS011;3622;53.576;9.978;2023-01-24T14:39:45;15.00;;;9.03;;
7160;SDS011;3622;53.576;9.978;2023-01-24T14:42:12;14.77;;;9.30;;
7160;SDS011;3622;53.576;9.978;2023-01-24T14:44:39;18.13;;;9.60;;
7160;SDS011;3622;53.576;9.978;2023-01-24T14:49:43;17.00;;;9.20;;
7160;SDS011;3622;53.576;9.978;2023-01-24T14:52:19;19.27;;;10.37;;
7160;SDS011;3622;53.576;9.978;2023-01-24T14:54:49;16.60;;;9.20;;
7160;SDS011;3622;53.576;9.978;2023-01-24T14:57:18;17.53;;;10.30;;
7160;SDS011;3622;53.576;9.978;2023-01-24T14:59:45;13.97;;;8.93;;
7160;SDS011;3622;53.576;9.978;2023-01-24T15:02:15;16.13;;;9.80;;
7160;SDS011;3622;53.576;9.978;2023-01-24T15:04:44;18.77;;;10.07;;
7160;SDS011;3622;53.576;9.978;2023-01-24T15:07:14;21.50;;;10.37;;
7160;SDS011;3622;53.576;9.978;2023-01-24T15:09:40;16.17;;;9.20;;
7160;SDS011;3622;53.576;9.978;2023-01-24T15:14:38;17.00;;;9.60;;
7160;SDS011;3622;53.576;9.978;2023-01-24T15:17:13;16.10;;;9.50;;
7160;SDS011;3622;53.576;9.978;2023-01-24T15:19:44;17.90;;;11.33;;
7160;SDS011;3622;53.576;9.978;2023-01-24T15:22:14;26.30;;;11.37;;
7160;SDS011;3622;53.576;9.978;2023-01-24T15:24:42;18.60;;;10.70;;
7160;SDS011;3622;53.576;9.978;2023-01-24T15:32:38;24.53;;;11.53;;
7160;SDS011;3622;53.576;9.978;2023-01-24T15:37:37;31.80;;;14.97;;
7160;SDS011;3622;53.576;9.978;2023-01-24T15:40:03;22.53;;;11.57;;
7160;SDS011;3622;53.576;9.978;2023-01-24T15:42:29;22.37;;;11.50;;
7160;SDS011;3622;53.576;9.978;2023-01-24T15:45:17;22.63;;;11.70;;
7160;SDS011;3622;53.576;9.978;2023-01-24T15:47:43;20.47;;;11.60;;
7160;SDS011;3622;53.576;9.978;2023-01-24T15:50:17;21.20;;;11.30;;
7160;SDS011;3622;53.576;9.978;2023-01-24T15:53:12;18.23;;;10.83;;
7160;SDS011;3622;53.576;9.978;2023-01-24T15:55:38;20.73;;;10.30;;
7160;SDS011;3622;53.576;9.978;2023-01-24T15:58:07;21.20;;;10.93;;
7160;SDS011;3622;53.576;9.978;2023-01-24T16:00:33;20.50;;;10.87;;
7160;SDS011;3622;53.576;9.978;2023-01-24T16:03:01;30.40;;;14.60;;
7160;SDS011;3622;53.576;9.978;2023-01-24T16:05:26;23.97;;;11.60;;
7160;SDS011;3622;53.576;9.978;2023-01-24T16:07:54;21.03;;;11.07;;
7160;SDS011;3622;53.576;9.978;2023-01-24T16:10:20;22.37;;;11.50;;
7160;SDS011;3622;53.576;9.978;2023-01-24T16:12:46;20.27;;;10.03;;
7160;SDS011;3622;53.576;9.978;2023-01-24T16:15:17;20.00;;;11.60;;
7160;SDS011;3622;53.576;9.978;2023-01-24T16:17:43;24.57;;;13.00;;
7160;SDS011;3622;53.576;9.978;2023-01-24T16:20:16;23.23;;;12.20;;
7160;SDS011;3622;53.576;9.978;2023-01-24T16:22:42;17.00;;;10.60;;
7160;SDS011;3622;53.576;9.978;2023-01-24T16:25:11;23.20;;;10.77;;
7160;SDS011;3622;53.576;9.978;2023-01-24T16:27:37;24.13;;;12.03;;
7160;SDS011;3622;53.576;9.978;2023-01-24T16:30:04;28.13;;;11.70;;
7160;SDS011;3622;53.576;9.978;2023-01-24T16:32:31;23.07;;;12.20;;
7160;SDS011;3622;53.576;9.978;2023-01-24T16:34:57;25.50;;;12.70;;
7160;SDS011;3622;53.576;9.978;2023-01-24T16:37:23;21.90;;;12.23;;
7160;SDS011;3622;53.576;9.978;2023-01-24T16:39:49;28.97;;;12.77;;
7160;SDS011;3622;53.576;9.978;2023-01-24T16:42:16;27.00;;;13.73;;
7160;SDS011;3622;53.576;9.978;2023-01-24T16:44:43;25.13;;;13.50;;
7160;SDS011;3622;53.576;9.978;2023-01-24T16:47:18;25.13;;;11.93;;
7160;SDS011;3622;53.576;9.978;2023-01-24T16:49:44;21.87;;;13.13;;
7160;SDS011;3622;53.576;9.978;2023-01-24T16:52:10;25.13;;;13.50;;
7160;SDS011;3622;53.576;9.978;2023-01-24T16:54:36;27.37;;;12.80;;
7160;SDS011;3622;53.576;9.978;2023-01-24T16:57:02;26.80;;;13.97;;
7160;SDS011;3622;53.576;9.978;2023-01-24T16:59:28;23.23;;;12.83;;
7160;SDS011;3622;53.576;9.978;2023-01-24T17:01:54;20.53;;;12.07;;
7160;SDS011;3622;53.576;9.978;2023-01-24T17:04:20;24.37;;;13.40;;